sensor_id;sensor_type;location;lat;lon;timestamp;temperature;humidity
66576;SHT31;53428;47.686;16.584;2023-12-20T00:02:28;-2.23;99.99
66576;SHT31;53428;47.686;16.584;2023-12-20T00:07:28;-2.45;99.99
66576;SHT31;53428;47.686;16.584;2023-12-20T00:12:27;-2.51;99.99
66576;SHT31;53428;47.686;16.584;2023-12-20T00:17:26;-2.57;99.99
66576;SHT31;53428;47.686;16.584;2023-12-20T00:22:25;-2.72;99.99
66576;SHT31;53428;47.686;16.584;2023-12-20T00:27:25;-2.47;99.99
66576;SHT31;53428;47.686;16.584;2023-12-20T00:32:24;-2.69;99.99
66576;SHT31;53428;47.686;16.584;2023-12-20T00:37:23;-2.89;99.99
66576;SHT31;53428;47.686;16.584;2023-12-20T00:42:23;-2.89;99.99
66576;SHT31;53428;47.686;16.584;2023-12-20T00:47:22;-2.79;99.99
66576;SHT31;53428;47.686;16.584;2023-12-20T00:52:21;-2.62;99.99
66576;SHT31;53428;47.686;16.584;2023-12-20T00:57:21;-2.47;99.99
66576;SHT31;53428;47.686;16.584;2023-12-20T01:02:21;-2.66;99.99
66576;SHT31;53428;47.686;16.584;2023-12-20T01:07:20;-2.54;99.99
66576;SHT31;53428;47.686;16.584;2023-12-20T01:12:20;-2.71;99.99
66576;SHT31;53428;47.686;16.584;2023-12-20T01:17:19;-2.42;99.99
66576;SHT31;53428;47.686;16.584;2023-12-20T01:22:18;-2.73;99.99
66576;SHT31;53428;47.686;16.584;2023-12-20T01:27:18;-2.75;99.99
66576;SHT31;53428;47.686;16.584;2023-12-20T01:32:17;-2.82;99.99
66576;SHT31;53428;47.686;16.584;2023-12-20T01:37:17;-2.99;99.99
66576;SHT31;53428;47.686;16.584;2023-12-20T01:42:16;-3.13;99.99
66576;SHT31;53428;47.686;16.584;2023-12-20T01:47:16;-2.99;99.99
66576;SHT31;53428;47.686;16.584;2023-12-20T01:52:16;-2.96;99.99
66576;SHT31;53428;47.686;16.584;2023-12-20T01:57:16;-3.24;99.99
66576;SHT31;53428;47.686;16.584;2023-12-20T02:02:15;-3.31;99.99
66576;SHT31;53428;47.686;16.584;2023-12-20T02:07:15;-3.09;99.99
66576;SHT31;53428;47.686;16.584;2023-12-20T02:12:15;-3.26;99.99
66576;SHT31;53428;47.686;16.584;2023-12-20T02:17:15;-3.26;99.99
66576;SHT31;53428;47.686;16.584;2023-12-20T02:22:15;-3.20;99.99
66576;SHT31;53428;47.686;16.584;2023-12-20T02:27:15;-3.20;99.99
66576;SHT31;53428;47.686;16.584;2023-12-20T02:32:17;-3.21;99.99
66576;SHT31;53428;47.686;16.584;2023-12-20T02:37:17;-3.03;99.99
66576;SHT31;53428;47.686;16.584;2023-12-20T02:42:16;-2.82;99.99
66576;SHT31;53428;47.686;16.584;2023-12-20T02:47:16;-2.99;99.99
66576;SHT31;53428;47.686;16.584;2023-12-20T02:52:15;-3.03;99.99
66576;SHT31;53428;47.686;16.584;2023-12-20T02:57:15;-2.90;99.99
66576;SHT31;53428;47.686;16.584;2023-12-20T03:02:14;-3.16;99.99
66576;SHT31;53428;47.686;16.584;2023-12-20T03:07:14;-3.10;99.99
66576;SHT31;53428;47.686;16.584;2023-12-20T03:12:13;-2.88;99.99
66576;SHT31;53428;47.686;16.584;2023-12-20T03:17:12;-2.97;99.99
66576;SHT31;53428;47.686;16.584;2023-12-20T03:22:11;-3.06;99.99
66576;SHT31;53428;47.686;16.584;2023-12-20T03:27:11;-3.13;99.99
66576;SHT31;53428;47.686;16.584;2023-12-20T03:32:10;-3.07;99.99
66576;SHT31;53428;47.686;16.584;2023-12-20T03:37:09;-3.10;99.99
66576;SHT31;53428;47.686;16.584;2023-12-20T03:42:08;-3.02;99.99
66576;SHT31;53428;47.686;16.584;2023-12-20T03:47:08;-3.04;99.99
66576;SHT31;53428;47.686;16.584;2023-12-20T03:52:07;-2.97;99.99
66576;SHT31;53428;47.686;16.584;2023-12-20T03:57:06;-3.07;99.99
66576;SHT31;53428;47.686;16.584;2023-12-20T04:02:05;-3.14;99.99
66576;SHT31;53428;47.686;16.584;2023-12-20T04:07:05;-3.00;99.99
66576;SHT31;53428;47.686;16.584;2023-12-20T04:12:04;-3.10;99.99
66576;SHT31;53428;47.686;16.584;2023-12-20T04:17:04;-3.10;99.99
66576;SHT31;53428;47.686;16.584;2023-12-20T04:22:03;-3.09;99.99
66576;SHT31;53428;47.686;16.584;2023-12-20T04:27:03;-2.89;99.99
66576;SHT31;53428;47.686;16.584;2023-12-20T04:32:02;-2.89;99.99
66576;SHT31;53428;47.686;16.584;2023-12-20T04:37:02;-2.93;99.99
66576;SHT31;53428;47.686;16.584;2023-12-20T04:42:01;-2.97;99.99
66576;SHT31;53428;47.686;16.584;2023-12-20T04:47:00;-2.92;99.99
66576;SHT31;53428;47.686;16.584;2023-12-20T04:52:00;-3.09;99.99
66576;SHT31;53428;47.686;16.584;2023-12-20T04:56:59;-3.07;99.99
66576;SHT31;53428;47.686;16.584;2023-12-20T05:01:58;-3.36;99.99
66576;SHT31;53428;47.686;16.584;2023-12-20T05:06:58;-3.54;99.99
66576;SHT31;53428;47.686;16.584;2023-12-20T05:11:57;-3.61;99.99
66576;SHT31;53428;47.686;16.584;2023-12-20T05:16:56;-3.61;99.99
66576;SHT31;53428;47.686;16.584;2023-12-20T05:21:56;-3.68;99.99
66576;SHT31;53428;47.686;16.584;2023-12-20T05:26:55;-3.50;99.99
66576;SHT31;53428;47.686;16.584;2023-12-20T05:31:54;-3.43;99.99
66576;SHT31;53428;47.686;16.584;2023-12-20T05:36:53;-3.47;99.99
66576;SHT31;53428;47.686;16.584;2023-12-20T05:41:52;-3.38;99.99
66576;SHT31;53428;47.686;16.584;2023-12-20T05:46:52;-3.19;99.99
66576;SHT31;53428;47.686;16.584;2023-12-20T05:51:51;-3.17;99.99
66576;SHT31;53428;47.686;16.584;2023-12-20T05:56:50;-3.16;99.99
66576;SHT31;53428;47.686;16.584;2023-12-20T06:01:49;-3.11;99.99
66576;SHT31;53428;47.686;16.584;2023-12-20T06:06:49;-3.10;99.99
66576;SHT31;53428;47.686;16.584;2023-12-20T06:11:48;-2.83;99.99
66576;SHT31;53428;47.686;16.584;2023-12-20T06:16:47;-2.95;99.99
66576;SHT31;53428;47.686;16.584;2023-12-20T06:21:46;-2.93;99.99
66576;SHT31;53428;47.686;16.584;2023-12-20T06:26:46;-2.79;99.99
66576;SHT31;53428;47.686;16.584;2023-12-20T06:31:45;-2.72;99.99
66576;SHT31;53428;47.686;16.584;2023-12-20T06:36:44;-2.68;99.99
66576;SHT31;53428;47.686;16.584;2023-12-20T06:41:44;-2.58;99.99
66576;SHT31;53428;47.686;16.584;2023-12-20T06:46:43;-2.66;99.99
66576;SHT31;53428;47.686;16.584;2023-12-20T06:51:42;-2.60;99.99
66576;SHT31;53428;47.686;16.584;2023-12-20T06:56:42;-2.44;99.99
66576;SHT31;53428;47.686;16.584;2023-12-20T07:01:41;-2.19;99.99
66576;SHT31;53428;47.686;16.584;2023-12-20T07:06:41;-2.13;99.99
66576;SHT31;53428;47.686;16.584;2023-12-20T07:11:40;-2.02;99.99
66576;SHT31;53428;47.686;16.584;2023-12-20T07:16:39;-1.85;99.99
66576;SHT31;53428;47.686;16.584;2023-12-20T07:21:39;-1.68;99.76
66576;SHT31;53428;47.686;16.584;2023-12-20T07:26:40;-1.44;99.88
66576;SHT31;53428;47.686;16.584;2023-12-20T07:31:39;-1.40;98.55
66576;SHT31;53428;47.686;16.584;2023-12-20T07:36:38;-1.17;98.70
66576;SHT31;53428;47.686;16.584;2023-12-20T07:41:37;-1.24;99.03
66576;SHT31;53428;47.686;16.584;2023-12-20T07:46:36;-1.10;99.64
66576;SHT31;53428;47.686;16.584;2023-12-20T07:51:36;-1.07;99.99
66576;SHT31;53428;47.686;16.584;2023-12-20T07:56:35;-0.97;99.99
66576;SHT31;53428;47.686;16.584;2023-12-20T08:01:40;-0.92;99.99
66576;SHT31;53428;47.686;16.584;2023-12-20T08:06:41;-1.14;99.99
66576;SHT31;53428;47.686;16.584;2023-12-20T08:11:45;-1.07;99.99
66576;SHT31;53428;47.686;16.584;2023-12-20T08:16:44;-1.13;99.99
66576;SHT31;53428;47.686;16.584;2023-12-20T08:21:43;-1.14;99.99
66576;SHT31;53428;47.686;16.584;2023-12-20T08:26:42;-1.11;99.99
66576;SHT31;53428;47.686;16.584;2023-12-20T08:31:41;-1.11;99.99
66576;SHT31;53428;47.686;16.584;2023-12-20T08:36:41;-0.85;99.99
66576;SHT31;53428;47.686;16.584;2023-12-20T08:41:40;-0.83;99.99
66576;SHT31;53428;47.686;16.584;2023-12-20T08:46:39;-0.80;99.99
66576;SHT31;53428;47.686;16.584;2023-12-20T08:51:41;-0.80;99.99
66576;SHT31;53428;47.686;16.584;2023-12-20T08:56:40;-0.80;99.99
66576;SHT31;53428;47.686;16.584;2023-12-20T09:01:40;-0.76;99.99
66576;SHT31;53428;47.686;16.584;2023-12-20T09:06:39;-0.52;99.99
66576;SHT31;53428;47.686;16.584;2023-12-20T09:11:38;-0.44;99.99
66576;SHT31;53428;47.686;16.584;2023-12-20T09:16:37;-0.17;99.99
66576;SHT31;53428;47.686;16.584;2023-12-20T09:21:36;-0.06;99.99
66576;SHT31;53428;47.686;16.584;2023-12-20T09:26:35;0.11;99.99
66576;SHT31;53428;47.686;16.584;2023-12-20T09:31:36;0.14;99.93
66576;SHT31;53428;47.686;16.584;2023-12-20T09:36:35;0.49;99.02
66576;SHT31;53428;47.686;16.584;2023-12-20T09:41:37;0.30;99.99
66576;SHT31;53428;47.686;16.584;2023-12-20T09:46:43;0.54;99.99
66576;SHT31;53428;47.686;16.584;2023-12-20T09:51:43;0.69;99.67
66576;SHT31;53428;47.686;16.584;2023-12-20T09:56:43;1.17;99.66
66576;SHT31;53428;47.686;16.584;2023-12-20T10:01:44;1.20;99.12
66576;SHT31;53428;47.686;16.584;2023-12-20T10:06:45;1.44;96.78
66576;SHT31;53428;47.686;16.584;2023-12-20T10:11:45;1.38;99.36
66576;SHT31;53428;47.686;16.584;2023-12-20T10:16:45;1.45;98.07
66576;SHT31;53428;47.686;16.584;2023-12-20T10:21:44;1.45;98.78
66576;SHT31;53428;47.686;16.584;2023-12-20T10:26:44;1.47;99.50
66576;SHT31;53428;47.686;16.584;2023-12-20T10:31:43;1.86;99.54
66576;SHT31;53428;47.686;16.584;2023-12-20T10:36:45;1.98;99.09
66576;SHT31;53428;47.686;16.584;2023-12-20T10:41:45;1.72;99.75
66576;SHT31;53428;47.686;16.584;2023-12-20T10:46:45;1.76;99.97
66576;SHT31;53428;47.686;16.584;2023-12-20T10:51:50;1.69;99.75
66576;SHT31;53428;47.686;16.584;2023-12-20T10:56:52;1.86;99.20
66576;SHT31;53428;47.686;16.584;2023-12-20T11:01:54;1.71;99.99
66576;SHT31;53428;47.686;16.584;2023-12-20T11:07:00;1.92;99.99
66576;SHT31;53428;47.686;16.584;2023-12-20T11:12:15;2.05;99.99
66576;SHT31;53428;47.686;16.584;2023-12-20T11:17:15;2.19;99.99
66576;SHT31;53428;47.686;16.584;2023-12-20T11:22:16;2.26;99.99
66576;SHT31;53428;47.686;16.584;2023-12-20T11:27:15;2.62;99.99
66576;SHT31;53428;47.686;16.584;2023-12-20T11:37:30;2.72;99.99
66576;SHT31;53428;47.686;16.584;2023-12-20T11:42:38;2.87;99.19
66576;SHT31;53428;47.686;16.584;2023-12-20T11:47:37;2.91;99.70
66576;SHT31;53428;47.686;16.584;2023-12-20T11:52:37;3.30;99.97
66576;SHT31;53428;47.686;16.584;2023-12-20T11:57:36;4.42;97.57
66576;SHT31;53428;47.686;16.584;2023-12-20T12:02:36;5.35;95.55
66576;SHT31;53428;47.686;16.584;2023-12-20T12:07:35;6.24;92.00
66576;SHT31;53428;47.686;16.584;2023-12-20T12:12:35;6.77;89.64
66576;SHT31;53428;47.686;16.584;2023-12-20T12:17:34;6.86;89.33
66576;SHT31;53428;47.686;16.584;2023-12-20T12:22:33;7.14;87.77
66576;SHT31;53428;47.686;16.584;2023-12-20T12:27:33;7.67;84.79
66576;SHT31;53428;47.686;16.584;2023-12-20T12:32:32;7.83;83.59
66576;SHT31;53428;47.686;16.584;2023-12-20T12:37:33;8.12;82.47
66576;SHT31;53428;47.686;16.584;2023-12-20T12:42:32;8.44;80.47
66576;SHT31;53428;47.686;16.584;2023-12-20T12:47:32;8.45;81.15
66576;SHT31;53428;47.686;16.584;2023-12-20T12:52:31;8.38;81.50
66576;SHT31;53428;47.686;16.584;2023-12-20T12:57:30;8.31;82.37
66576;SHT31;53428;47.686;16.584;2023-12-20T13:02:30;8.27;82.55
66576;SHT31;53428;47.686;16.584;2023-12-20T13:07:29;8.27;82.90
66576;SHT31;53428;47.686;16.584;2023-12-20T13:12:28;8.05;83.70
66576;SHT31;53428;47.686;16.584;2023-12-20T13:17:28;8.08;83.45
66576;SHT31;53428;47.686;16.584;2023-12-20T13:22:27;8.22;83.29
66576;SHT31;53428;47.686;16.584;2023-12-20T13:27:26;8.65;83.02
66576;SHT31;53428;47.686;16.584;2023-12-20T13:32:26;9.17;81.71
66576;SHT31;53428;47.686;16.584;2023-12-20T13:37:25;8.62;83.10
66576;SHT31;53428;47.686;16.584;2023-12-20T13:42:24;8.18;83.48
66576;SHT31;53428;47.686;16.584;2023-12-20T13:47:26;8.20;83.26
66576;SHT31;53428;47.686;16.584;2023-12-20T13:52:25;7.97;83.90
66576;SHT31;53428;47.686;16.584;2023-12-20T13:57:24;7.69;85.12
66576;SHT31;53428;47.686;16.584;2023-12-20T14:02:23;7.63;85.36
66576;SHT31;53428;47.686;16.584;2023-12-20T14:07:22;7.41;85.94
66576;SHT31;53428;47.686;16.584;2023-12-20T14:12:22;7.29;86.53
66576;SHT31;53428;47.686;16.584;2023-12-20T14:17:21;7.12;87.25
66576;SHT31;53428;47.686;16.584;2023-12-20T14:22:20;6.95;87.84
66576;SHT31;53428;47.686;16.584;2023-12-20T14:27:20;6.70;88.88
66576;SHT31;53428;47.686;16.584;2023-12-20T14:32:22;6.75;88.50
66576;SHT31;53428;47.686;16.584;2023-12-20T14:37:21;6.59;88.37
66576;SHT31;53428;47.686;16.584;2023-12-20T14:42:20;6.45;88.70
66576;SHT31;53428;47.686;16.584;2023-12-20T14:47:21;6.40;88.44
66576;SHT31;53428;47.686;16.584;2023-12-20T14:52:20;6.28;89.06
66576;SHT31;53428;47.686;16.584;2023-12-20T14:57:19;6.33;89.15
66576;SHT31;53428;47.686;16.584;2023-12-20T15:02:18;6.04;90.09
66576;SHT31;53428;47.686;16.584;2023-12-20T15:07:18;6.04;90.25
66576;SHT31;53428;47.686;16.584;2023-12-20T15:12:18;5.52;91.61
66576;SHT31;53428;47.686;16.584;2023-12-20T15:17:17;5.56;91.80
66576;SHT31;53428;47.686;16.584;2023-12-20T15:22:16;5.33;92.30
66576;SHT31;53428;47.686;16.584;2023-12-20T15:27:15;5.25;92.49
66576;SHT31;53428;47.686;16.584;2023-12-20T15:32:15;4.99;92.61
66576;SHT31;53428;47.686;16.584;2023-12-20T15:37:14;4.58;95.28
66576;SHT31;53428;47.686;16.584;2023-12-20T15:42:13;4.35;96.00
66576;SHT31;53428;47.686;16.584;2023-12-20T15:47:12;4.20;96.13
66576;SHT31;53428;47.686;16.584;2023-12-20T15:52:11;4.49;95.20
66576;SHT31;53428;47.686;16.584;2023-12-20T15:57:10;4.23;95.76
66576;SHT31;53428;47.686;16.584;2023-12-20T16:02:09;4.25;96.01
66576;SHT31;53428;47.686;16.584;2023-12-20T16:07:09;4.43;96.08
66576;SHT31;53428;47.686;16.584;2023-12-20T16:12:08;4.35;96.29
66576;SHT31;53428;47.686;16.584;2023-12-20T16:17:08;4.30;96.49
66576;SHT31;53428;47.686;16.584;2023-12-20T16:22:07;4.19;96.18
66576;SHT31;53428;47.686;16.584;2023-12-20T16:27:06;4.06;96.41
66576;SHT31;53428;47.686;16.584;2023-12-20T16:32:06;4.01;97.15
66576;SHT31;53428;47.686;16.584;2023-12-20T16:37:05;3.77;97.14
66576;SHT31;53428;47.686;16.584;2023-12-20T16:42:05;3.79;97.98
66576;SHT31;53428;47.686;16.584;2023-12-20T16:47:04;4.08;97.05
66576;SHT31;53428;47.686;16.584;2023-12-20T16:52:04;3.68;97.97
66576;SHT31;53428;47.686;16.584;2023-12-20T16:57:03;3.66;98.26
66576;SHT31;53428;47.686;16.584;2023-12-20T17:02:05;4.19;96.91
66576;SHT31;53428;47.686;16.584;2023-12-20T17:07:05;4.50;94.81
66576;SHT31;53428;47.686;16.584;2023-12-20T17:12:05;4.84;93.89
66576;SHT31;53428;47.686;16.584;2023-12-20T17:17:04;4.95;92.96
66576;SHT31;53428;47.686;16.584;2023-12-20T17:22:03;5.23;91.81
66576;SHT31;53428;47.686;16.584;2023-12-20T17:27:03;5.05;92.33
66576;SHT31;53428;47.686;16.584;2023-12-20T17:32:04;5.07;92.15
66576;SHT31;53428;47.686;16.584;2023-12-20T17:37:04;4.81;92.58
66576;SHT31;53428;47.686;16.584;2023-12-20T17:42:03;4.78;92.64
66576;SHT31;53428;47.686;16.584;2023-12-20T17:47:03;4.70;92.28
66576;SHT31;53428;47.686;16.584;2023-12-20T17:52:03;4.50;93.41
66576;SHT31;53428;47.686;16.584;2023-12-20T17:57:05;4.43;93.42
66576;SHT31;53428;47.686;16.584;2023-12-20T18:02:04;4.64;92.32
66576;SHT31;53428;47.686;16.584;2023-12-20T18:07:04;4.70;91.65
66576;SHT31;53428;47.686;16.584;2023-12-20T18:12:04;4.73;90.96
66576;SHT31;53428;47.686;16.584;2023-12-20T18:17:06;4.68;90.47
66576;SHT31;53428;47.686;16.584;2023-12-20T18:22:05;4.58;90.62
66576;SHT31;53428;47.686;16.584;2023-12-20T18:27:05;4.10;91.01
66576;SHT31;53428;47.686;16.584;2023-12-20T18:32:06;3.88;92.14
66576;SHT31;53428;47.686;16.584;2023-12-20T18:37:06;3.19;94.33
66576;SHT31;53428;47.686;16.584;2023-12-20T18:42:08;2.96;95.54
66576;SHT31;53428;47.686;16.584;2023-12-20T18:47:08;3.18;95.46
66576;SHT31;53428;47.686;16.584;2023-12-20T18:52:09;3.73;91.90
66576;SHT31;53428;47.686;16.584;2023-12-20T18:57:08;3.66;92.88
66576;SHT31;53428;47.686;16.584;2023-12-20T19:02:09;4.52;86.85
66576;SHT31;53428;47.686;16.584;2023-12-20T19:07:10;5.29;83.31
66576;SHT31;53428;47.686;16.584;2023-12-20T19:12:10;5.97;80.04
66576;SHT31;53428;47.686;16.584;2023-12-20T19:17:11;6.15;79.25
66576;SHT31;53428;47.686;16.584;2023-12-20T19:22:11;6.12;79.30
66576;SHT31;53428;47.686;16.584;2023-12-20T19:27:11;5.80;80.84
66576;SHT31;53428;47.686;16.584;2023-12-20T19:32:11;5.50;81.58
66576;SHT31;53428;47.686;16.584;2023-12-20T19:37:11;5.64;81.37
66576;SHT31;53428;47.686;16.584;2023-12-20T19:42:11;6.02;80.47
66576;SHT31;53428;47.686;16.584;2023-12-20T19:47:11;6.50;78.81
66576;SHT31;53428;47.686;16.584;2023-12-20T19:52:12;6.69;78.17
66576;SHT31;53428;47.686;16.584;2023-12-20T19:57:12;6.87;77.44
66576;SHT31;53428;47.686;16.584;2023-12-20T20:02:15;6.07;80.19
66576;SHT31;53428;47.686;16.584;2023-12-20T20:07:16;5.95;80.22
66576;SHT31;53428;47.686;16.584;2023-12-20T20:12:19;6.79;77.08
66576;SHT31;53428;47.686;16.584;2023-12-20T20:17:19;7.01;75.99
66576;SHT31;53428;47.686;16.584;2023-12-20T20:22:19;7.14;74.90
66576;SHT31;53428;47.686;16.584;2023-12-20T20:27:19;7.38;74.14
66576;SHT31;53428;47.686;16.584;2023-12-20T20:32:21;7.28;74.12
66576;SHT31;53428;47.686;16.584;2023-12-20T20:37:21;7.22;74.22
66576;SHT31;53428;47.686;16.584;2023-12-20T20:42:21;7.12;74.52
66576;SHT31;53428;47.686;16.584;2023-12-20T20:47:21;7.09;74.60
66576;SHT31;53428;47.686;16.584;2023-12-20T20:52:21;7.01;74.80
66576;SHT31;53428;47.686;16.584;2023-12-20T20:57:21;7.05;74.49
66576;SHT31;53428;47.686;16.584;2023-12-20T21:02:21;7.09;73.86
66576;SHT31;53428;47.686;16.584;2023-12-20T21:07:20;7.05;73.59
66576;SHT31;53428;47.686;16.584;2023-12-20T21:12:19;7.05;73.24
66576;SHT31;53428;47.686;16.584;2023-12-20T21:17:18;7.03;73.15
66576;SHT31;53428;47.686;16.584;2023-12-20T21:22:17;6.87;73.52
66576;SHT31;53428;47.686;16.584;2023-12-20T21:27:17;6.84;74.07
66576;SHT31;53428;47.686;16.584;2023-12-20T21:32:16;6.59;74.99
66576;SHT31;53428;47.686;16.584;2023-12-20T21:37:15;6.69;74.53
66576;SHT31;53428;47.686;16.584;2023-12-20T21:42:15;6.70;74.30
66576;SHT31;53428;47.686;16.584;2023-12-20T21:47:14;6.65;74.31
66576;SHT31;53428;47.686;16.584;2023-12-20T21:52:13;6.77;73.09
66576;SHT31;53428;47.686;16.584;2023-12-20T21:57:13;6.72;73.04
66576;SHT31;53428;47.686;16.584;2023-12-20T22:02:13;6.69;72.81
66576;SHT31;53428;47.686;16.584;2023-12-20T22:07:12;6.88;71.36
66576;SHT31;53428;47.686;16.584;2023-12-20T22:12:12;6.97;71.20
66576;SHT31;53428;47.686;16.584;2023-12-20T22:17:11;6.91;70.92
66576;SHT31;53428;47.686;16.584;2023-12-20T22:22:10;7.18;69.00
66576;SHT31;53428;47.686;16.584;2023-12-20T22:27:09;7.09;69.43
66576;SHT31;53428;47.686;16.584;2023-12-20T22:32:09;7.07;69.66
66576;SHT31;53428;47.686;16.584;2023-12-20T22:37:08;7.18;68.91
66576;SHT31;53428;47.686;16.584;2023-12-20T22:42:07;7.11;69.37
66576;SHT31;53428;47.686;16.584;2023-12-20T22:47:06;7.28;68.31
66576;SHT31;53428;47.686;16.584;2023-12-20T22:52:09;7.34;68.16
66576;SHT31;53428;47.686;16.584;2023-12-20T22:57:08;7.25;68.64
66576;SHT31;53428;47.686;16.584;2023-12-20T23:02:07;7.34;68.67
66576;SHT31;53428;47.686;16.584;2023-12-20T23:13:21;7.31;68.87
66576;SHT31;53428;47.686;16.584;2023-12-20T23:18:20;7.43;68.61
66576;SHT31;53428;47.686;16.584;2023-12-20T23:23:20;7.41;68.79
66576;SHT31;53428;47.686;16.584;2023-12-20T23:28:19;7.45;68.50
66576;SHT31;53428;47.686;16.584;2023-12-20T23:33:18;7.25;68.97
66576;SHT31;53428;47.686;16.584;2023-12-20T23:38:18;7.14;68.84
66576;SHT31;53428;47.686;16.584;2023-12-20T23:43:17;6.83;69.95
66576;SHT31;53428;47.686;16.584;2023-12-20T23:48:16;6.72;70.40
66576;SHT31;53428;47.686;16.584;2023-12-20T23:53:16;6.83;70.36
66576;SHT31;53428;47.686;16.584;2023-12-20T23:58:15;6.72;70.26
